Terminal Aerodrome Forecast
Issued by NWS

Current Version | Previous Version | Text Only | Print | Product List | Glossary Off
Versions: 1 2 3 4 5 6 7 8 9 10 11 12 13 14 15 16 17 18 19 20 21 22 23 24 25 26 27

381
FTUS41 KRLX 012320
TAFCKB
TAF
KCKB 012320Z 0200/0224 00000KT P6SM VCTS OVC070CB
     FM020400 18004KT P6SM SHRA VCTS BKN070CB
     FM021000 22006KT P6SM SHRA BKN040
     FM021200 21006KT 6SM BR BKN015
     FM021500 23011G18KT P6SM BKN025
     FM021800 25009KT P6SM BKN035=

USA.gov is the U.S. government's official web portal to all federal, state and local government web resources and services.